createdAt,value
2018-05-06T00:00:14.549Z,2.73
2018-05-06T00:02:40.909Z,2.43
2018-05-06T00:05:07.991Z,2.37
2018-05-06T00:07:34.351Z,2.17
2018-05-06T00:10:00.685Z,2.37
2018-05-06T00:12:27.092Z,2.43
2018-05-06T00:14:53.475Z,2.20
2018-05-06T00:17:19.825Z,2.10
2018-05-06T00:19:46.178Z,2.50
2018-05-06T00:22:12.521Z,1.50
2018-05-06T00:24:38.841Z,2.33
2018-05-06T00:27:05.166Z,2.70
2018-05-06T00:29:31.540Z,2.00
2018-05-06T00:31:57.857Z,2.27
2018-05-06T00:34:24.950Z,2.00
2018-05-06T00:36:51.310Z,2.40
2018-05-06T00:39:17.641Z,2.27
2018-05-06T00:41:44.009Z,2.70
2018-05-06T00:44:11.109Z,2.40
2018-05-06T00:46:37.450Z,1.97
2018-05-06T00:49:04.543Z,2.00
2018-05-06T00:51:30.891Z,2.30
2018-05-06T00:53:57.277Z,2.23
2018-05-06T00:56:24.357Z,2.37
2018-05-06T00:58:51.438Z,2.40
2018-05-06T01:01:17.753Z,2.23
2018-05-06T01:03:44.849Z,2.23
2018-05-06T01:06:11.196Z,2.00
2018-05-06T01:08:37.594Z,2.33
2018-05-06T01:11:04.755Z,2.00
2018-05-06T01:13:31.866Z,2.27
2018-05-06T01:15:58.223Z,2.13
2018-05-06T01:18:24.569Z,3.40
2018-05-06T01:20:50.914Z,2.30
2018-05-06T01:23:17.230Z,2.30
2018-05-06T01:25:43.546Z,3.03
2018-05-06T01:28:10.618Z,2.70
2018-05-06T01:30:36.966Z,1.70
2018-05-06T01:33:03.271Z,2.40
2018-05-06T01:35:29.629Z,2.60
2018-05-06T01:37:55.997Z,2.50
2018-05-06T01:40:22.385Z,2.60
2018-05-06T01:42:48.687Z,2.10
2018-05-06T01:45:15.005Z,2.27
2018-05-06T01:47:41.325Z,2.37
2018-05-06T01:50:08.393Z,2.30
2018-05-06T01:52:34.722Z,2.13
2018-05-06T01:55:01.249Z,2.50
2018-05-06T01:57:27.557Z,1.87
2018-05-06T01:59:53.894Z,2.27
2018-05-06T02:02:21.170Z,2.80
2018-05-06T02:04:47.507Z,2.67
2018-05-06T02:07:13.844Z,2.00
2018-05-06T02:09:40.219Z,2.50
2018-05-06T02:12:06.566Z,2.00
2018-05-06T02:14:32.914Z,3.00
2018-05-06T02:16:59.246Z,3.23
2018-05-06T02:19:25.605Z,2.50
2018-05-06T02:21:51.927Z,2.13
2018-05-06T02:24:18.273Z,2.30
2018-05-06T02:26:44.605Z,2.20
2018-05-06T02:29:11.006Z,2.67
2018-05-06T02:31:37.369Z,2.50
2018-05-06T02:34:04.342Z,2.83
2018-05-06T02:36:30.691Z,2.60
2018-05-06T02:38:57.026Z,3.00
2018-05-06T02:41:23.370Z,2.67
2018-05-06T02:43:49.690Z,2.70
2018-05-06T02:46:16.119Z,2.63
2018-05-06T02:48:43.165Z,3.10
2018-05-06T02:51:10.267Z,3.10
2018-05-06T02:53:36.621Z,2.90
2018-05-06T02:56:03.224Z,2.77
2018-05-06T02:58:29.578Z,3.73
2018-05-06T03:00:56.683Z,3.13
2018-05-06T03:03:23.181Z,3.43
2018-05-06T03:05:49.558Z,3.80
2018-05-06T03:08:15.927Z,2.70
2018-05-06T03:10:42.294Z,3.00
2018-05-06T03:13:08.618Z,2.83
2018-05-06T03:15:34.974Z,3.00
2018-05-06T03:18:02.170Z,3.17
2018-05-06T03:20:29.277Z,3.27
2018-05-06T03:22:55.662Z,3.07
2018-05-06T03:25:22.793Z,3.47
2018-05-06T03:27:49.230Z,3.40
2018-05-06T03:30:15.593Z,3.63
2018-05-06T03:32:42.014Z,2.80
2018-05-06T03:35:08.374Z,2.87
2018-05-06T03:37:34.784Z,2.50
2018-05-06T03:40:02.720Z,3.30
2018-05-06T03:42:29.163Z,3.10
2018-05-06T03:44:55.524Z,3.10
2018-05-06T03:47:21.881Z,3.03
2018-05-06T03:49:49.034Z,3.00
2018-05-06T03:52:16.912Z,2.97
2018-05-06T03:54:43.290Z,3.37
2018-05-06T03:57:22.053Z,3.50
2018-05-06T04:00:01.364Z,3.13
2018-05-06T04:02:39.500Z,2.90
2018-05-06T04:05:05.834Z,3.97
2018-05-06T04:07:32.954Z,3.70
2018-05-06T04:09:59.333Z,4.00
2018-05-06T04:12:25.722Z,3.23
2018-05-06T04:14:52.100Z,3.00
2018-05-06T04:17:18.517Z,4.07
2018-05-06T04:19:44.937Z,4.10
2018-05-06T04:22:12.294Z,2.97
2018-05-06T04:24:38.813Z,3.47
2018-05-06T04:27:06.123Z,3.40
2018-05-06T04:29:33.236Z,3.87
2018-05-06T04:31:59.585Z,2.83
2018-05-06T04:34:25.976Z,3.80
2018-05-06T04:36:52.326Z,3.43
2018-05-06T04:39:18.669Z,3.60
2018-05-06T04:41:44.989Z,3.30
2018-05-06T04:44:11.377Z,4.03
2018-05-06T04:46:38.525Z,3.83
2018-05-06T04:49:05.917Z,3.40
2018-05-06T04:51:32.276Z,3.47
2018-05-06T04:53:58.662Z,3.43
2018-05-06T04:56:25.025Z,3.90
2018-05-06T04:58:51.384Z,3.60
2018-05-06T05:01:18.553Z,3.10
2018-05-06T05:03:44.969Z,3.33
2018-05-06T05:06:11.342Z,3.73
2018-05-06T05:08:38.478Z,3.30
2018-05-06T05:11:04.915Z,3.60
2018-05-06T05:13:31.261Z,3.60
2018-05-06T05:15:57.744Z,3.27
2018-05-06T05:18:24.834Z,3.37
2018-05-06T05:20:51.391Z,3.40
2018-05-06T05:23:17.796Z,3.10
2018-05-06T05:25:44.200Z,3.60
2018-05-06T05:28:11.366Z,3.50
2018-05-06T05:30:37.890Z,3.27
2018-05-06T05:33:04.340Z,3.20
2018-05-06T05:35:30.890Z,3.97
2018-05-06T05:37:58.018Z,3.37
2018-05-06T05:40:24.439Z,3.30
2018-05-06T05:42:51.598Z,3.13
2018-05-06T05:45:19.798Z,4.00
2018-05-06T05:47:46.459Z,3.60
2018-05-06T05:50:13.585Z,3.40
2018-05-06T05:52:39.964Z,3.47
2018-05-06T05:55:07.078Z,3.33
2018-05-06T05:57:34.284Z,3.70
2018-05-06T06:00:01.618Z,2.60
2018-05-06T06:02:28.067Z,3.93
2018-05-06T06:04:54.438Z,3.97
2018-05-06T06:07:21.028Z,3.50
2018-05-06T06:09:47.487Z,3.97
2018-05-06T06:12:13.944Z,3.90
2018-05-06T06:14:40.524Z,3.90
2018-05-06T06:17:07.025Z,4.00
2018-05-06T06:19:33.461Z,3.20
2018-05-06T06:21:59.959Z,3.53
2018-05-06T06:24:26.326Z,2.50
2018-05-06T06:26:52.741Z,2.90
2018-05-06T06:29:19.148Z,2.53
2018-05-06T06:31:45.734Z,2.30
2018-05-06T06:34:12.187Z,2.70
2018-05-06T06:36:38.641Z,2.97
2018-05-06T06:39:05.205Z,2.10
2018-05-06T06:41:31.686Z,2.47
2018-05-06T06:43:58.130Z,2.87
2018-05-06T06:46:24.674Z,2.50
2018-05-06T06:48:51.938Z,2.10
2018-05-06T06:51:19.197Z,2.47
2018-05-06T06:53:45.717Z,2.60
2018-05-06T06:56:12.249Z,2.60
2018-05-06T06:58:38.771Z,2.70
2018-05-06T07:01:05.354Z,2.27
2018-05-06T07:03:32.259Z,2.43
2018-05-06T07:05:58.744Z,2.33
2018-05-06T07:08:25.752Z,3.33
2018-05-06T07:10:53.629Z,2.40
2018-05-06T07:13:20.123Z,2.80
2018-05-06T07:15:46.702Z,2.73
2018-05-06T07:18:13.164Z,2.70
2018-05-06T07:20:39.670Z,2.50
2018-05-06T07:23:06.979Z,2.67
2018-05-06T07:25:33.371Z,2.70
2018-05-06T07:27:59.958Z,2.40
2018-05-06T07:30:26.343Z,2.57
2018-05-06T07:32:52.795Z,3.20
2018-05-06T07:35:19.948Z,3.20
2018-05-06T07:37:46.375Z,2.43
2018-05-06T07:40:12.777Z,2.63
2018-05-06T07:42:39.187Z,3.03
2018-05-06T07:45:06.344Z,2.53
2018-05-06T07:47:32.739Z,2.40
2018-05-06T07:49:59.908Z,2.87
2018-05-06T07:52:26.446Z,2.30
2018-05-06T07:54:52.895Z,2.40
2018-05-06T07:57:20.068Z,2.77
2018-05-06T07:59:47.312Z,2.77
2018-05-06T08:02:14.520Z,2.27
2018-05-06T08:04:42.072Z,2.63
2018-05-06T08:07:08.558Z,2.00
2018-05-06T08:09:35.046Z,1.97
2018-05-06T08:12:01.470Z,2.10
2018-05-06T08:14:27.919Z,2.37
2018-05-06T08:16:55.139Z,1.93
2018-05-06T08:19:21.672Z,2.47
2018-05-06T08:21:48.225Z,1.80
2018-05-06T08:24:14.748Z,1.57
2018-05-06T08:26:41.205Z,2.30
2018-05-06T08:29:07.774Z,1.93
2018-05-06T08:31:34.924Z,1.57
2018-05-06T08:34:01.460Z,1.90
2018-05-06T08:36:27.889Z,2.30
2018-05-06T08:38:54.386Z,1.80
2018-05-06T08:41:20.876Z,1.50
2018-05-06T08:43:47.326Z,1.93
2018-05-06T08:46:13.761Z,1.83
2018-05-06T08:48:40.458Z,2.80
2018-05-06T08:51:07.653Z,1.93
2018-05-06T08:53:34.847Z,2.00
2018-05-06T08:56:01.424Z,2.43
2018-05-06T08:58:27.989Z,1.87
2018-05-06T09:00:55.197Z,1.90
2018-05-06T09:03:21.772Z,1.90
2018-05-06T09:05:48.242Z,2.40
2018-05-06T09:08:14.755Z,2.40
2018-05-06T09:10:41.231Z,2.20
2018-05-06T09:13:07.644Z,2.60
2018-05-06T09:15:34.825Z,1.90
2018-05-06T09:18:01.272Z,2.60
2018-05-06T09:20:27.721Z,1.73
2018-05-06T09:22:54.199Z,2.17
2018-05-06T09:25:20.705Z,1.80
2018-05-06T09:27:47.164Z,2.03
2018-05-06T09:30:13.813Z,1.70
2018-05-06T09:32:40.333Z,2.23
2018-05-06T09:35:07.558Z,2.13
2018-05-06T09:37:34.753Z,1.73
2018-05-06T09:40:01.962Z,2.43
2018-05-06T09:42:28.354Z,2.00
2018-05-06T09:44:54.807Z,1.50
2018-05-06T09:47:22.764Z,1.63
2018-05-06T09:49:49.241Z,1.97
2018-05-06T09:52:15.701Z,1.80
2018-05-06T09:54:42.233Z,1.80
2018-05-06T09:57:08.744Z,2.20
2018-05-06T09:59:35.933Z,3.33
2018-05-06T10:02:03.154Z,2.07
2018-05-06T10:04:29.650Z,2.20
2018-05-06T10:06:56.111Z,2.17
2018-05-06T10:09:23.297Z,1.93
2018-05-06T10:11:49.774Z,2.20
2018-05-06T10:14:16.224Z,2.13
2018-05-06T10:16:42.661Z,2.73
2018-05-06T10:19:09.953Z,2.07
2018-05-06T10:21:37.176Z,1.80
2018-05-06T10:24:03.965Z,2.83
2018-05-06T10:26:30.522Z,2.20
2018-05-06T10:28:56.957Z,2.47
2018-05-06T10:31:23.374Z,2.10
2018-05-06T10:33:49.883Z,2.03
2018-05-06T10:36:16.279Z,1.90
2018-05-06T10:38:42.778Z,2.30
2018-05-06T10:41:09.937Z,2.50
2018-05-06T10:43:36.433Z,2.30
2018-05-06T10:46:02.936Z,2.33
2018-05-06T10:48:30.224Z,2.07
2018-05-06T10:50:56.797Z,1.80
2018-05-06T10:53:23.419Z,1.97
2018-05-06T10:55:49.969Z,2.40
2018-05-06T10:58:16.408Z,2.47
2018-05-06T11:00:42.777Z,2.33
2018-05-06T11:03:09.337Z,1.93
2018-05-06T11:05:36.421Z,1.90
2018-05-06T11:08:02.844Z,2.07
2018-05-06T11:10:30.137Z,2.57
2018-05-06T11:12:56.366Z,1.90
2018-05-06T11:15:22.709Z,2.40
2018-05-06T11:17:49.111Z,2.73
2018-05-06T11:20:15.503Z,2.23
2018-05-06T11:22:41.860Z,1.67
